Time;durP1;ratioP1;P1;durP2;ratioP2;P2;SDS_P1;SDS_P2;PMS_P1;PMS_P2;Temp;Humidity;BMP_temperature;BMP_pressure;BME280_temperature;BME280_humidity;BME280_pressure;Samples;Min_cycle;Max_cycle;Signal;HPM_P1;HPM_P2
2021/05/25 00:01:41;;;;;;;1.00;0.80;;;11.40;95.80;;;;;;5001721;28;20864;-88
2021/05/25 00:04:07;;;;;;;4.17;1.07;;;11.30;96.80;;;;;;5017077;28;20522;-88
2021/05/25 00:06:37;;;;;;;2.37;0.80;;;11.30;96.80;;;;;;5014488;28;20473;-88
2021/05/25 00:09:05;;;;;;;1.50;0.83;;;11.20;96.40;;;;;;5002899;28;20451;-88
2021/05/25 00:11:31;;;;;;;2.93;1.10;;;11.30;96.20;;;;;;5015611;28;20451;-88
2021/05/25 00:13:58;;;;;;;3.10;1.10;;;11.30;95.80;;;;;;5012389;28;20498;-88
2021/05/25 00:16:25;;;;;;;1.53;0.80;;;11.30;94.90;;;;;;4998131;28;20553;-88
2021/05/25 00:18:52;;;;;;;1.03;0.80;;;11.30;95.00;;;;;;4997784;28;20489;-87
2021/05/25 00:21:18;;;;;;;1.80;1.07;;;11.30;94.50;;;;;;4998274;28;20469;-88
2021/05/25 00:23:45;;;;;;;1.70;1.00;;;11.30;94.30;;;;;;4998227;28;20446;-88
2021/05/25 00:26:11;;;;;;;2.13;1.03;;;11.30;94.50;;;;;;4997364;28;20852;-88
2021/05/25 00:28:37;;;;;;;2.10;0.93;;;11.30;94.20;;;;;;4997374;28;20450;-88
2021/05/25 00:31:04;;;;;;;1.27;1.00;;;11.20;93.90;;;;;;4997732;28;20467;-88
2021/05/25 00:33:31;;;;;;;3.27;1.03;;;11.20;94.20;;;;;;4997721;28;20439;-87
2021/05/25 00:35:58;;;;;;;2.00;1.07;;;11.20;94.10;;;;;;5018613;28;20518;-88
2021/05/25 00:38:24;;;;;;;1.27;0.90;;;11.20;94.20;;;;;;5002156;28;20537;-88
2021/05/25 00:40:51;;;;;;;2.03;0.90;;;11.20;93.90;;;;;;5000928;28;20470;-88
2021/05/25 00:43:17;;;;;;;1.70;1.07;;;11.10;94.20;;;;;;4998682;28;20463;-88
2021/05/25 00:45:43;;;;;;;2.00;1.20;;;11.10;94.20;;;;;;5000873;28;20451;-88
2021/05/25 00:48:10;;;;;;;2.50;1.00;;;11.10;94.30;;;;;;4999648;28;20451;-88
2021/05/25 00:50:37;;;;;;;6.00;1.40;;;11.10;94.30;;;;;;5000049;28;20543;-88
2021/05/25 00:53:05;;;;;;;1.90;0.93;;;11.10;94.70;;;;;;5006645;28;20927;-88
2021/05/25 00:55:33;;;;;;;2.80;0.83;;;11.00;94.90;;;;;;5000152;28;20443;-87
2021/05/25 00:58:02;;;;;;;4.57;1.20;;;10.90;95.80;;;;;;5001123;28;21045;-87
2021/05/25 01:00:33;;;;;;;3.00;1.20;;;10.90;96.30;;;;;;4997208;28;20456;-88
2021/05/25 01:03:00;;;;;;;1.17;0.77;;;10.80;96.80;;;;;;4997308;28;20919;-87
2021/05/25 01:05:27;;;;;;;5.47;1.10;;;10.80;97.30;;;;;;5004931;28;20499;-88
2021/05/25 01:07:54;;;;;;;1.10;0.73;;;10.70;97.60;;;;;;5012307;28;20558;-88
2021/05/25 01:10:27;;;;;;;3.17;1.00;;;10.70;98.20;;;;;;5011096;28;20459;-88
2021/05/25 01:12:56;;;;;;;1.67;0.73;;;10.70;98.50;;;;;;4999409;28;20454;-88
2021/05/25 01:15:24;;;;;;;2.77;1.00;;;10.70;98.80;;;;;;4997164;28;20917;-88
2021/05/25 01:17:52;;;;;;;1.20;0.93;;;10.50;99.00;;;;;;4997272;28;20473;-88
2021/05/25 01:20:19;;;;;;;2.90;1.20;;;10.50;99.40;;;;;;4996181;28;20469;-88
2021/05/25 01:22:47;;;;;;;2.20;0.87;;;10.40;99.80;;;;;;4996670;28;20455;-88
2021/05/25 01:25:15;;;;;;;2.57;0.90;;;10.30;99.90;;;;;;4995944;28;20576;-88
2021/05/25 01:27:48;;;;;;;1.57;1.03;;;10.30;99.90;;;;;;4996839;28;20479;-87
2021/05/25 01:30:16;;;;;;;1.77;0.90;;;10.30;99.90;;;;;;4996475;28;20420;-87
2021/05/25 01:32:42;;;;;;;2.80;1.13;;;10.30;99.90;;;;;;5001724;28;20945;-88
2021/05/25 01:35:09;;;;;;;3.17;1.13;;;10.30;99.90;;;;;;4998117;28;20447;-87
2021/05/25 01:37:35;;;;;;;3.70;1.30;;;10.30;99.90;;;;;;4998015;28;20479;-87
2021/05/25 01:40:04;;;;;;;4.27;1.20;;;10.30;99.60;;;;;;5003825;28;20483;-88
2021/05/25 01:42:38;;;;;;;1.30;0.90;;;10.30;99.60;;;;;;5039604;22;20496;-89
2021/05/25 01:45:06;;;;;;;1.57;1.20;;;10.30;99.60;;;;;;5033670;28;20452;-89
2021/05/25 02:11:57;;;;;;;2.93;1.10;;;10.20;99.90;;;;;;4763428;29;20607;-89
2021/05/25 02:14:32;;;;;;;3.03;1.30;;;10.10;99.90;;;;;;4858848;29;20546;-88
2021/05/25 02:20:55;;;;;;;2.27;1.00;;;10.10;99.90;;;;;;4813826;29;20459;-89
2021/05/25 02:30:36;;;;;;;2.07;0.80;;;10.30;99.30;;;;;;4813604;29;20469;-88
2021/05/25 02:33:09;;;;;;;1.13;1.00;;;10.20;99.40;;;;;;4921045;28;20449;-88
2021/05/25 02:35:44;;;;;;;3.27;1.30;;;10.10;99.40;;;;;;4979385;28;20724;-89
2021/05/25 02:38:17;;;;;;;4.70;1.27;;;10.10;99.70;;;;;;5021155;28;20490;-88
2021/05/25 02:40:53;;;;;;;2.00;1.30;;;10.00;99.70;;;;;;5038479;28;20442;-88
2021/05/25 02:43:34;;;;;;;2.10;1.13;;;10.00;99.40;;;;;;5038453;28;20414;-88
2021/05/25 02:46:11;;;;;;;2.70;1.13;;;10.00;99.40;;;;;;5038168;28;20422;-88
2021/05/25 02:52:49;;;;;;;1.80;1.47;;;10.00;99.70;;;;;;5029808;28;20485;-88
2021/05/25 02:58:39;;;;;;;4.30;1.27;;;9.80;99.90;;;;;;5025380;28;20477;-88
2021/05/25 03:01:16;;;;;;;1.33;0.80;;;9.80;99.50;;;;;;5018835;28;20514;-90
2021/05/25 03:07:10;;;;;;;2.07;1.30;;;9.80;99.30;;;;;;5016008;28;20841;-88
2021/05/25 03:09:42;;;;;;;1.90;1.30;;;9.80;99.60;;;;;;5031415;28;20450;-87
2021/05/25 03:12:15;;;;;;;2.70;1.10;;;9.90;98.00;;;;;;5024496;28;20541;-88
2021/05/25 03:14:53;;;;;;;3.17;0.97;;;10.00;97.00;;;;;;5008663;28;20455;-87
2021/05/25 03:17:23;;;;;;;2.70;1.17;;;9.90;97.10;;;;;;5004883;28;20479;-88
2021/05/25 03:19:59;;;;;;;2.37;0.93;;;9.90;97.40;;;;;;5016711;28;20482;-87
2021/05/25 03:22:28;;;;;;;3.00;1.10;;;9.90;97.30;;;;;;4997882;28;20827;-88
2021/05/25 03:25:04;;;;;;;4.20;1.20;;;9.80;97.50;;;;;;4996802;28;20431;-88
2021/05/25 03:27:35;;;;;;;4.60;1.47;;;9.80;97.40;;;;;;4997382;28;20439;-90
2021/05/25 03:30:05;;;;;;;6.00;1.23;;;9.70;97.80;;;;;;5000257;28;20448;-89
2021/05/25 03:32:36;;;;;;;2.57;1.00;;;9.70;97.70;;;;;;5014010;28;20527;-89
2021/05/25 03:35:06;;;;;;;5.00;1.03;;;9.70;97.90;;;;;;5021973;28;20454;-89
2021/05/25 03:37:37;;;;;;;5.37;1.73;;;9.80;97.40;;;;;;5040239;28;20489;-88
2021/05/25 03:40:10;;;;;;;3.47;1.43;;;9.90;97.00;;;;;;5024021;28;20573;-88
2021/05/25 03:42:37;;;;;;;4.23;1.00;;;9.90;96.80;;;;;;5014833;28;20478;-89
2021/05/25 03:45:05;;;;;;;2.93;1.20;;;9.80;97.10;;;;;;5015057;28;20450;-89
2021/05/25 03:47:31;;;;;;;5.63;1.27;;;9.70;97.40;;;;;;5016483;28;20473;-89
2021/05/25 03:50:07;;;;;;;4.67;1.70;;;9.70;97.50;;;;;;5016632;28;20533;-89
2021/05/25 03:52:35;;;;;;;1.70;1.07;;;9.70;97.60;;;;;;5017233;28;20457;-89
2021/05/25 03:55:04;;;;;;;2.50;2.30;;;9.70;97.50;;;;;;5017943;28;20434;-89
2021/05/25 04:00:16;;;;;;;3.93;1.13;;;9.70;97.50;;;;;;5016779;28;20581;-89
2021/05/25 04:02:43;;;;;;;3.00;1.20;;;9.80;97.60;;;;;;5014474;28;20476;-89
2021/05/25 04:05:11;;;;;;;3.57;1.20;;;9.70;97.50;;;;;;5016451;28;20522;-89
2021/05/25 04:07:37;;;;;;;3.23;1.10;;;9.80;97.20;;;;;;5017225;28;20569;-89
2021/05/25 04:13:26;;;;;;;3.37;1.03;;;9.80;97.70;;;;;;4955343;29;20632;-89
2021/05/25 04:16:09;;;;;;;2.30;1.30;;;9.80;97.60;;;;;;4957351;28;20497;-89
2021/05/25 04:18:41;;;;;;;2.13;1.40;;;9.80;97.50;;;;;;5015601;28;20564;-89
2021/05/25 04:25:19;;;;;;;3.30;1.10;;;10.00;96.70;;;;;;4965408;28;20982;-90
2021/05/25 04:39:07;;;;;;;3.23;1.17;;;10.30;95.00;;;;;;4898204;29;20477;-89
2021/05/25 04:42:16;;;;;;;;;;;;;;;;;;;;;
2021/05/25 04:45:09;;;;;;;3.90;1.73;;;10.30;95.50;;;;;;5036248;28;20440;-88
2021/05/25 05:22:47;;;;;;;1.97;1.10;;;11.00;92.40;;;;;;4862429;29;20475;-87
2021/05/25 05:28:50;;;;;;;8.73;2.57;;;11.60;90.90;;;;;;5002837;28;20419;-87
2021/05/25 05:35:28;;;;;;;2.53;0.90;;;11.80;90.30;;;;;;4980964;28;20789;-89
2021/05/25 05:38:57;;;;;;;;;;;;;;;;;;;;;
2021/05/25 05:42:24;;;;;;;1.77;0.80;;;12.70;86.10;;;;;;5013095;28;20495;-90
2021/05/25 05:51:49;;;;;;;1.30;0.87;;;12.90;82.10;;;;;;4960730;28;21105;-89
2021/05/25 05:57:59;;;;;;;2.50;0.77;;;12.50;84.60;;;;;;4942163;28;20456;-89
2021/05/25 06:03:21;;;;;;;1.93;0.80;;;12.30;85.10;;;;;;4980806;28;20507;-89
2021/05/25 06:05:59;;;;;;;2.13;0.70;;;12.90;84.80;;;;;;4995456;28;20450;-89
2021/05/25 06:08:45;;;;;;;2.70;1.10;;;13.20;81.70;;;;;;4998462;28;20427;-89
2021/05/25 06:11:29;;;;;;;1.83;0.90;;;13.20;81.60;;;;;;5012037;28;20469;-89
2021/05/25 06:13:57;;;;;;;4.07;1.20;;;13.00;81.40;;;;;;5015661;28;20554;-89
2021/05/25 06:16:24;;;;;;;4.10;0.97;;;12.70;80.70;;;;;;5014858;28;20485;-89
2021/05/25 06:18:51;;;;;;;1.70;0.80;;;12.60;79.90;;;;;;5015052;28;20931;-89
2021/05/25 06:21:18;;;;;;;2.23;1.00;;;12.70;80.90;;;;;;4996787;28;20499;-89
2021/05/25 06:23:44;;;;;;;1.90;0.90;;;13.20;78.60;;;;;;4994544;28;20807;-89
2021/05/25 06:26:11;;;;;;;3.80;0.83;;;13.20;77.00;;;;;;5010863;28;20511;-89
2021/05/25 06:28:37;;;;;;;2.07;1.10;;;12.90;78.50;;;;;;5038225;28;20506;-88
2021/05/25 06:31:04;;;;;;;1.90;0.90;;;12.80;78.70;;;;;;5019708;28;21208;-89
2021/05/25 06:33:31;;;;;;;1.80;0.90;;;12.60;78.40;;;;;;5013891;28;20482;-90
2021/05/25 06:35:58;;;;;;;1.40;0.70;;;12.60;79.60;;;;;;4994885;28;20988;-89
2021/05/25 06:38:27;;;;;;;2.50;1.00;;;12.60;79.50;;;;;;4993882;28;20985;-90
2021/05/25 06:40:54;;;;;;;2.07;0.77;;;12.60;80.70;;;;;;4998513;28;20439;-89
2021/05/25 06:43:21;;;;;;;1.63;1.00;;;12.70;80.90;;;;;;4995292;28;20460;-89
2021/05/25 06:45:51;;;;;;;1.87;0.87;;;12.70;78.90;;;;;;5028655;28;20453;-90
2021/05/25 06:48:18;;;;;;;1.63;0.93;;;12.70;77.80;;;;;;5021942;28;20447;-90
2021/05/25 06:50:46;;;;;;;1.80;0.60;;;12.70;77.40;;;;;;5015092;28;20518;-89
2021/05/25 06:53:12;;;;;;;1.33;0.70;;;12.60;78.10;;;;;;5008685;28;20452;-89
2021/05/25 06:55:39;;;;;;;1.57;0.70;;;13.60;77.10;;;;;;4996163;28;20518;-89
2021/05/25 06:58:07;;;;;;;2.80;0.70;;;14.70;72.60;;;;;;4997073;28;20450;-89
2021/05/25 07:00:34;;;;;;;1.37;0.87;;;15.20;69.80;;;;;;5000864;28;20486;-90
2021/05/25 07:03:00;;;;;;;4.90;1.03;;;15.20;68.10;;;;;;5004468;28;20547;-90
2021/05/25 07:05:27;;;;;;;0.93;0.60;;;14.20;68.60;;;;;;5026156;28;20457;-90
2021/05/25 07:15:06;;;;;;;;;;;;;;;;;;;;;
2021/05/25 07:18:33;;;;;;;3.20;0.80;;;13.20;75.50;;;;;;4998940;28;20539;-90
2021/05/25 07:25:13;;;;;;;5.27;1.00;;;13.10;73.50;;;;;;4983819;28;20440;-89
2021/05/25 07:34:46;;;;;;;2.53;0.83;;;13.10;72.70;;;;;;4984750;28;20460;-90
2021/05/25 08:03:21;;;;;;;;;;;;;;;;;;;;;
2021/05/25 08:09:08;;;;;;;1.53;0.70;;;14.10;65.50;;;;;;4958011;28;20437;-89
2021/05/25 08:15:48;;;;;;;1.40;1.00;;;14.10;65.80;;;;;;4995672;28;20550;-88
2021/05/25 08:18:37;;;;;;;2.17;0.70;;;14.00;66.40;;;;;;4998223;28;20458;-89
2021/05/25 08:21:04;;;;;;;3.50;1.00;;;14.10;66.50;;;;;;4993479;28;20503;-87
2021/05/25 08:23:31;;;;;;;1.80;0.70;;;14.20;69.40;;;;;;4990897;28;20450;-87
2021/05/25 08:25:58;;;;;;;2.27;1.00;;;14.30;66.00;;;;;;5005071;28;20448;-86
2021/05/25 08:28:25;;;;;;;4.70;1.10;;;14.20;65.00;;;;;;4998552;28;20470;-86
2021/05/25 08:30:52;;;;;;;1.50;0.70;;;14.30;64.60;;;;;;4990258;28;20507;-86
2021/05/25 08:33:19;;;;;;;2.80;0.90;;;14.40;64.30;;;;;;5004510;28;20529;-87
2021/05/25 08:35:47;;;;;;;6.53;0.90;;;14.60;63.50;;;;;;5002321;28;20432;-86
2021/05/25 08:38:16;;;;;;;2.40;0.80;;;14.40;63.30;;;;;;4999293;28;20428;-85
2021/05/25 08:40:43;;;;;;;0.97;0.63;;;14.30;63.60;;;;;;5008092;28;20490;-87
2021/05/25 08:43:10;;;;;;;4.23;1.13;;;14.20;63.70;;;;;;5016802;28;20504;-85
2021/05/25 08:45:36;;;;;;;4.83;0.93;;;14.70;64.10;;;;;;5001407;28;20473;-85
2021/05/25 08:48:05;;;;;;;2.23;1.00;;;15.20;63.30;;;;;;5003329;28;20447;-86
2021/05/25 08:50:31;;;;;;;1.73;0.93;;;15.10;60.40;;;;;;5006530;28;20450;-84
2021/05/25 08:53:01;;;;;;;2.23;0.80;;;15.00;62.30;;;;;;5008075;28;20471;-84
2021/05/25 08:55:28;;;;;;;2.60;1.07;;;15.40;61.80;;;;;;5001332;28;20454;-85
2021/05/25 08:57:55;;;;;;;9.17;1.53;;;15.70;60.00;;;;;;4986041;28;20473;-85
2021/05/25 09:00:21;;;;;;;0.90;0.60;;;15.10;59.90;;;;;;4985612;28;20482;-85
2021/05/25 09:02:47;;;;;;;4.17;1.10;;;15.30;60.00;;;;;;5006832;28;20467;-84
2021/05/25 09:05:18;;;;;;;4.63;1.13;;;15.50;60.90;;;;;;4982942;28;20444;-86
2021/05/25 09:07:47;;;;;;;2.60;1.20;;;16.10;60.30;;;;;;4980422;28;20541;-88
2021/05/25 09:10:16;;;;;;;3.20;0.80;;;17.10;59.50;;;;;;4999354;28;20510;-86
2021/05/25 09:12:45;;;;;;;4.07;1.17;;;16.30;57.70;;;;;;5005911;28;20471;-85
2021/05/25 09:15:13;;;;;;;3.70;0.90;;;16.20;59.80;;;;;;4999175;28;20451;-86
2021/05/25 09:17:40;;;;;;;3.73;0.93;;;16.10;59.40;;;;;;5000143;28;20453;-85
2021/05/25 09:20:09;;;;;;;1.17;0.63;;;15.70;59.90;;;;;;4984034;28;20437;-85
2021/05/25 09:22:38;;;;;;;3.57;0.90;;;15.30;61.70;;;;;;4994449;28;20470;-85
2021/05/25 09:25:23;;;;;;;1.57;1.13;;;15.20;62.60;;;;;;4988160;28;20455;-85
2021/05/25 09:27:59;;;;;;;3.83;1.30;;;15.20;62.20;;;;;;4978924;28;20487;-85
2021/05/25 09:30:28;;;;;;;1.87;1.13;;;14.80;62.20;;;;;;4992854;28;20486;-86
2021/05/25 09:32:59;;;;;;;1.90;0.80;;;14.80;63.20;;;;;;4995947;28;20471;-86
2021/05/25 09:35:27;;;;;;;0.80;0.63;;;14.70;63.20;;;;;;4995156;28;20875;-86
2021/05/25 09:37:55;;;;;;;1.10;0.70;;;14.50;63.80;;;;;;4994916;28;20498;-86
2021/05/25 09:40:26;;;;;;;3.07;1.07;;;14.50;65.80;;;;;;4978926;28;20983;-86
2021/05/25 09:42:55;;;;;;;3.40;0.70;;;14.70;65.60;;;;;;5013894;28;20521;-86
2021/05/25 09:45:22;;;;;;;1.80;0.87;;;15.10;66.00;;;;;;4998340;28;20563;-86
2021/05/25 09:47:52;;;;;;;5.43;1.17;;;15.40;64.80;;;;;;4976179;28;20800;-86
2021/05/25 09:50:19;;;;;;;4.20;0.90;;;15.10;63.30;;;;;;4990872;28;21046;-86
2021/05/25 09:53:04;;;;;;;2.87;1.10;;;14.90;63.60;;;;;;4993961;28;20478;-86
2021/05/25 09:55:32;;;;;;;2.87;1.07;;;14.50;63.40;;;;;;4993512;28;20446;-86
2021/05/25 09:57:59;;;;;;;4.60;1.30;;;14.30;67.60;;;;;;4994561;28;20500;-86
2021/05/25 10:00:33;;;;;;;2.63;1.20;;;14.50;68.10;;;;;;4992477;28;20516;-85
2021/05/25 10:03:12;;;;;;;2.20;1.00;;;15.90;65.60;;;;;;4988625;28;20468;-87
2021/05/25 10:05:39;;;;;;;5.07;1.00;;;17.90;59.90;;;;;;4988516;28;20949;-87
2021/05/25 10:08:07;;;;;;;4.67;1.67;;;19.70;56.90;;;;;;4984152;28;20470;-85
2021/05/25 10:10:35;;;;;;;2.10;1.10;;;21.20;53.20;;;;;;5005446;28;21010;-86
2021/05/25 10:13:02;;;;;;;3.70;1.40;;;19.60;51.20;;;;;;4980111;28;21017;-86
2021/05/25 10:15:29;;;;;;;2.00;1.17;;;19.30;53.70;;;;;;4978747;28;20503;-86
2021/05/25 10:20:38;;;;;;;2.93;0.87;;;18.90;53.00;;;;;;4996320;28;20428;-87
2021/05/25 10:23:04;;;;;;;2.93;1.33;;;19.60;52.40;;;;;;5015044;28;20439;-86
2021/05/25 10:25:34;;;;;;;3.40;1.03;;;19.50;50.10;;;;;;4988968;28;20519;-86
2021/05/25 10:28:06;;;;;;;5.63;3.20;;;19.80;52.00;;;;;;5009172;28;20515;-85
2021/05/25 10:30:41;;;;;;;1.60;0.93;;;20.20;49.90;;;;;;5000184;28;20485;-85
2021/05/25 10:33:27;;;;;;;2.33;1.17;;;19.30;50.60;;;;;;4979599;28;20511;-86
2021/05/25 10:35:56;;;;;;;1.80;1.00;;;18.20;50.70;;;;;;4982858;28;20443;-86
2021/05/25 10:38:26;;;;;;;3.60;1.17;;;17.30;52.60;;;;;;4993081;28;20449;-86
2021/05/25 10:40:55;;;;;;;2.70;0.87;;;16.20;54.50;;;;;;4990270;28;20827;-86
2021/05/25 10:43:44;;;;;;;3.53;1.47;;;15.80;56.40;;;;;;4974622;28;20462;-86
2021/05/25 10:46:27;;;;;;;2.10;1.67;;;15.60;57.20;;;;;;4974043;28;20494;-86
2021/05/25 10:49:09;;;;;;;3.00;1.37;;;15.70;59.50;;;;;;4974674;28;20975;-86
2021/05/25 10:52:12;;;;;;;2.20;0.90;;;16.00;59.70;;;;;;4975194;28;20472;-85
2021/05/25 10:54:58;;;;;;;6.03;1.87;;;16.00;60.30;;;;;;4974099;28;20551;-86
2021/05/25 10:57:36;;;;;;;2.43;1.63;;;15.60;63.50;;;;;;4974321;28;20571;-86
2021/05/25 11:00:09;;;;;;;3.03;1.40;;;15.40;67.40;;;;;;4975309;28;20932;-86
2021/05/25 11:02:53;;;;;;;3.97;1.20;;;15.20;72.70;;;;;;5014648;28;20486;-85
2021/05/25 11:05:39;;;;;;;3.20;1.30;;;15.10;74.20;;;;;;5007886;28;20445;-86
2021/05/25 11:08:34;;;;;;;2.50;1.13;;;14.90;74.80;;;;;;5007959;28;20467;-86
2021/05/25 11:11:28;;;;;;;3.37;1.60;;;15.40;79.30;;;;;;5005761;28;20463;-86
2021/05/25 11:13:57;;;;;;;3.53;1.70;;;16.40;74.20;;;;;;4986338;28;20501;-86
2021/05/25 11:16:29;;;;;;;3.10;1.20;;;16.30;74.10;;;;;;5002259;23;20502;-83
2021/05/25 11:19:00;;;;;;;3.80;1.43;;;16.00;72.50;;;;;;4987421;28;20444;-84
2021/05/25 11:21:48;;;;;;;5.07;1.50;;;15.80;74.90;;;;;;4989882;28;20444;-84
2021/05/25 11:24:30;;;;;;;3.50;1.33;;;15.40;76.00;;;;;;4989481;28;20456;-84
2021/05/25 11:27:03;;;;;;;4.50;2.10;;;14.90;77.10;;;;;;4998249;28;20493;-84
2021/05/25 11:29:31;;;;;;;6.27;1.90;;;14.30;82.90;;;;;;5001995;28;20490;-83
2021/05/25 11:32:01;;;;;;;4.30;2.37;;;13.70;90.30;;;;;;5001754;28;20451;-84
2021/05/25 11:34:28;;;;;;;2.40;1.60;;;13.10;91.70;;;;;;5006833;28;20968;-83
2021/05/25 11:36:59;;;;;;;7.20;3.33;;;12.70;92.00;;;;;;5005965;28;20467;-84
2021/05/25 11:39:26;;;;;;;3.10;1.97;;;14.30;92.90;;;;;;5008140;28;20457;-84
2021/05/25 11:41:53;;;;;;;7.00;3.27;;;16.10;90.50;;;;;;4999903;28;20445;-85
2021/05/25 11:44:22;;;;;;;2.30;1.47;;;18.50;84.30;;;;;;4986147;28;20999;-84
2021/05/25 11:46:50;;;;;;;1.20;0.80;;;19.20;79.60;;;;;;4991048;28;20479;-85
2021/05/25 11:49:18;;;;;;;1.43;0.90;;;20.80;73.30;;;;;;4994511;28;20483;-82
2021/05/25 11:51:48;;;;;;;2.07;1.20;;;20.90;69.10;;;;;;5012414;28;20453;-85
2021/05/25 11:54:17;;;;;;;1.10;0.70;;;21.80;64.30;;;;;;5009917;28;20443;-84
2021/05/25 11:56:46;;;;;;;3.33;1.20;;;22.00;57.70;;;;;;5008670;28;20472;-85
2021/05/25 11:59:18;;;;;;;2.10;1.60;;;22.50;58.30;;;;;;5009799;28;20449;-84
2021/05/25 12:01:50;;;;;;;1.43;0.90;;;22.30;53.10;;;;;;5003652;28;20540;-86
2021/05/25 12:04:17;;;;;;;1.30;1.10;;;21.50;54.50;;;;;;5004243;28;20452;-85
2021/05/25 12:06:54;;;;;;;3.17;1.50;;;21.90;53.50;;;;;;5002960;28;20478;-84
2021/05/25 12:09:26;;;;;;;3.60;1.97;;;22.10;51.90;;;;;;5006307;28;20472;-85
2021/05/25 12:11:56;;;;;;;2.27;1.20;;;22.00;50.90;;;;;;5008079;28;20570;-84
2021/05/25 12:14:29;;;;;;;2.20;0.70;;;21.50;50.20;;;;;;5006755;28;20455;-85
2021/05/25 12:16:57;;;;;;;4.27;1.30;;;21.10;48.90;;;;;;5008713;28;20478;-84
2021/05/25 12:19:23;;;;;;;2.47;1.00;;;22.60;50.60;;;;;;4992685;28;20445;-85
2021/05/25 12:21:50;;;;;;;1.40;0.77;;;22.10;47.40;;;;;;4994007;28;20455;-85
2021/05/25 12:24:26;;;;;;;1.30;1.00;;;21.90;46.80;;;;;;4991147;28;20518;-85
2021/05/25 12:26:52;;;;;;;7.07;1.47;;;22.70;47.20;;;;;;4988226;28;21002;-85
2021/05/25 12:29:20;;;;;;;3.67;1.27;;;23.20;46.20;;;;;;4992371;28;20485;-86
2021/05/25 12:31:46;;;;;;;3.87;1.13;;;22.50;44.20;;;;;;4992925;28;20453;-84
2021/05/25 12:34:16;;;;;;;2.40;1.00;;;21.70;46.40;;;;;;4994643;28;20453;-85
2021/05/25 12:36:51;;;;;;;1.90;0.90;;;22.10;47.20;;;;;;4999004;28;20497;-86
2021/05/25 12:39:25;;;;;;;1.53;0.93;;;22.00;45.60;;;;;;4998594;28;20447;-83
2021/05/25 12:41:51;;;;;;;2.10;1.20;;;22.40;44.40;;;;;;5001919;28;20446;-84
2021/05/25 12:44:20;;;;;;;3.93;1.03;;;22.40;43.70;;;;;;4984994;28;20464;-84
2021/05/25 12:46:51;;;;;;;1.50;0.70;;;22.00;45.20;;;;;;4990487;28;20486;-84
2021/05/25 12:49:29;;;;;;;1.77;1.17;;;22.90;45.90;;;;;;4991204;28;20472;-84
2021/05/25 12:52:22;;;;;;;2.10;0.83;;;23.60;45.40;;;;;;4990419;28;20461;-84
2021/05/25 12:54:53;;;;;;;3.27;0.80;;;22.80;43.30;;;;;;4997314;28;20442;-85
2021/05/25 12:57:20;;;;;;;2.90;1.07;;;22.20;42.90;;;;;;4995610;28;20453;-85
2021/05/25 12:59:57;;;;;;;3.47;1.10;;;23.00;44.20;;;;;;4995252;28;20443;-84
2021/05/25 13:02:37;;;;;;;4.27;1.20;;;21.70;43.10;;;;;;4999660;28;20446;-85
2021/05/25 13:05:07;;;;;;;1.83;1.00;;;20.80;46.40;;;;;;4993753;28;20450;-85
2021/05/25 13:07:46;;;;;;;4.07;1.40;;;20.10;45.50;;;;;;4994747;28;20431;-85
2021/05/25 13:10:32;;;;;;;3.63;1.40;;;20.00;47.50;;;;;;4998267;28;20505;-85
2021/05/25 13:13:12;;;;;;;4.07;1.30;;;20.00;48.10;;;;;;4998545;28;20447;-85
2021/05/25 13:15:41;;;;;;;1.83;0.90;;;20.70;45.70;;;;;;4995596;28;20506;-85
2021/05/25 13:18:11;;;;;;;5.03;2.90;;;20.70;45.10;;;;;;4997981;28;20504;-85
2021/05/25 13:20:39;;;;;;;3.10;1.77;;;20.70;45.80;;;;;;5002015;28;20434;-85
2021/05/25 13:23:23;;;;;;;2.47;1.20;;;20.10;46.50;;;;;;4994092;28;20527;-85
2021/05/25 13:26:04;;;;;;;2.13;1.10;;;19.40;46.70;;;;;;4996594;28;20498;-84
2021/05/25 13:28:46;;;;;;;2.40;0.93;;;18.90;47.50;;;;;;4995197;28;20450;-85
2021/05/25 13:31:16;;;;;;;2.00;0.90;;;19.30;48.10;;;;;;4994950;28;20475;-85
2021/05/25 13:33:43;;;;;;;2.80;1.03;;;19.40;47.70;;;;;;4991360;28;20447;-84
2021/05/25 13:36:10;;;;;;;5.70;1.17;;;19.40;48.90;;;;;;4990487;28;20994;-86
2021/05/25 13:38:39;;;;;;;3.73;1.83;;;19.10;47.90;;;;;;4990777;28;20825;-85
2021/05/25 13:41:05;;;;;;;5.80;2.13;;;19.20;48.30;;;;;;4993570;28;20943;-84
2021/05/25 13:43:34;;;;;;;3.40;1.40;;;19.10;48.00;;;;;;5003543;28;20454;-84
2021/05/25 13:46:03;;;;;;;2.37;1.00;;;19.30;47.90;;;;;;4994246;28;20829;-84
2021/05/25 13:48:29;;;;;;;3.27;1.67;;;19.00;47.90;;;;;;4987594;28;20468;-86
2021/05/25 13:50:55;;;;;;;1.40;1.00;;;20.20;49.00;;;;;;4985831;28;20500;-86
2021/05/25 13:53:22;;;;;;;2.20;0.97;;;21.90;44.80;;;;;;4988726;28;20446;-85
2021/05/25 13:55:49;;;;;;;1.60;1.10;;;22.30;45.20;;;;;;4985759;28;20475;-84
2021/05/25 13:58:18;;;;;;;3.17;0.80;;;21.60;44.30;;;;;;4987083;28;20454;-86
2021/05/25 14:01:01;;;;;;;2.43;0.93;;;20.70;44.20;;;;;;4988412;28;20440;-86
2021/05/25 14:03:27;;;;;;;2.93;1.47;;;20.00;46.60;;;;;;4989812;28;20455;-85
2021/05/25 14:05:53;;;;;;;5.37;1.57;;;19.30;46.30;;;;;;4991743;28;20509;-84
2021/05/25 14:08:19;;;;;;;2.63;1.60;;;19.00;47.30;;;;;;4989193;28;20451;-86
2021/05/25 14:10:48;;;;;;;4.30;1.70;;;18.80;48.20;;;;;;4990309;28;20539;-85
2021/05/25 14:13:15;;;;;;;2.73;1.80;;;19.10;48.10;;;;;;4987324;28;20499;-87
2021/05/25 14:15:41;;;;;;;4.50;2.63;;;21.00;47.40;;;;;;4988406;28;20479;-86
2021/05/25 14:18:11;;;;;;;2.03;1.50;;;22.00;44.10;;;;;;4987416;28;20554;-84
2021/05/25 14:20:39;;;;;;;8.03;1.57;;;22.90;43.60;;;;;;4998633;28;20471;-85
2021/05/25 14:23:05;;;;;;;7.53;1.60;;;22.00;43.80;;;;;;5010804;28;20466;-85
2021/05/25 14:25:31;;;;;;;3.57;1.20;;;22.30;43.60;;;;;;5006476;28;20469;-84
2021/05/25 14:28:00;;;;;;;3.17;1.10;;;22.40;43.60;;;;;;5007081;28;20446;-83
2021/05/25 14:30:26;;;;;;;1.50;1.10;;;21.70;43.60;;;;;;5005078;28;20464;-84
2021/05/25 14:32:53;;;;;;;1.87;0.80;;;20.80;44.50;;;;;;4991712;28;20460;-85
2021/05/25 14:35:19;;;;;;;3.60;1.47;;;19.80;46.90;;;;;;5012132;28;20459;-84
2021/05/25 14:37:45;;;;;;;1.93;0.77;;;19.40;47.70;;;;;;5007866;28;20452;-86
2021/05/25 14:40:14;;;;;;;5.90;2.47;;;19.00;47.30;;;;;;4995691;28;20438;-86
2021/05/25 14:42:41;;;;;;;2.60;1.20;;;18.40;48.10;;;;;;4996426;28;20483;-88
2021/05/25 14:45:09;;;;;;;1.87;1.03;;;18.30;48.20;;;;;;4988111;28;21024;-85
2021/05/25 14:47:37;;;;;;;1.83;1.17;;;18.10;49.40;;;;;;4982310;28;20464;-87
2021/05/25 14:53:10;;;;;;;5.57;1.30;;;18.40;49.10;;;;;;4981820;28;20443;-85
2021/05/25 14:55:40;;;;;;;3.57;0.90;;;18.50;48.20;;;;;;4966578;28;20472;-87
2021/05/25 14:58:06;;;;;;;3.07;1.17;;;18.40;48.60;;;;;;4984833;28;20424;-85
2021/05/25 15:00:41;;;;;;;5.80;1.27;;;18.20;47.80;;;;;;4981980;28;20449;-86
2021/05/25 15:03:12;;;;;;;1.97;0.97;;;18.00;48.20;;;;;;4984539;28;20454;-84
2021/05/25 15:05:40;;;;;;;2.57;1.20;;;18.00;49.00;;;;;;5005467;28;20470;-85
2021/05/25 15:08:10;;;;;;;1.93;0.90;;;18.10;48.50;;;;;;4986154;28;20459;-86
2021/05/25 15:10:36;;;;;;;2.57;1.20;;;18.00;48.20;;;;;;4981366;28;20491;-83
2021/05/25 15:13:02;;;;;;;2.63;1.13;;;17.60;47.80;;;;;;4986923;28;20449;-85
2021/05/25 15:15:29;;;;;;;2.00;0.97;;;17.50;48.50;;;;;;4997136;28;20478;-86
2021/05/25 15:17:58;;;;;;;3.70;0.87;;;17.60;49.10;;;;;;4983343;28;20425;-86
2021/05/25 15:20:25;;;;;;;5.50;1.43;;;17.60;49.40;;;;;;4978982;28;20446;-87
2021/05/25 15:22:52;;;;;;;4.50;1.00;;;17.80;49.20;;;;;;4981287;28;20448;-83
2021/05/25 15:25:30;;;;;;;1.67;0.83;;;18.00;48.30;;;;;;4983639;28;20468;-85
2021/05/25 15:27:56;;;;;;;2.43;1.20;;;17.90;47.30;;;;;;4983875;28;20455;-85
2021/05/25 15:30:34;;;;;;;3.13;1.27;;;17.70;47.80;;;;;;4985528;28;20531;-84
2021/05/25 15:33:02;;;;;;;4.10;1.03;;;17.40;47.30;;;;;;4986337;28;20566;-86
2021/05/25 15:35:28;;;;;;;2.90;0.70;;;17.10;47.70;;;;;;5003852;28;20479;-85
2021/05/25 15:37:56;;;;;;;1.97;1.00;;;17.10;48.30;;;;;;5005280;28;20450;-87
2021/05/25 15:40:22;;;;;;;3.60;1.10;;;17.10;48.20;;;;;;5003547;28;20517;-85
2021/05/25 15:42:48;;;;;;;6.27;1.20;;;17.10;48.10;;;;;;5006671;28;20474;-84
2021/05/25 15:45:16;;;;;;;1.90;0.90;;;17.00;47.70;;;;;;4994479;28;20476;-85
2021/05/25 15:47:43;;;;;;;1.80;0.80;;;17.10;48.90;;;;;;4986984;28;20451;-84
2021/05/25 15:50:26;;;;;;;2.00;1.03;;;17.20;48.90;;;;;;4986273;28;20487;-82
2021/05/25 15:52:55;;;;;;;2.80;1.40;;;17.30;48.70;;;;;;4986001;28;20459;-85
2021/05/25 15:55:22;;;;;;;1.70;0.90;;;17.50;48.60;;;;;;4987477;28;20467;-86
2021/05/25 15:57:49;;;;;;;1.63;1.50;;;17.80;48.00;;;;;;4989291;28;20797;-88
2021/05/25 16:00:16;;;;;;;3.57;1.10;;;18.10;48.60;;;;;;4985397;28;20451;-89
2021/05/25 16:02:43;;;;;;;3.10;1.30;;;18.10;47.60;;;;;;4982749;28;20459;-88
2021/05/25 16:05:11;;;;;;;5.20;2.87;;;18.30;47.10;;;;;;4979479;28;20476;-87
2021/05/25 16:07:38;;;;;;;2.70;1.47;;;18.40;47.70;;;;;;4979621;28;20470;-88
2021/05/25 16:10:06;;;;;;;4.17;0.80;;;18.30;47.00;;;;;;4987869;28;20574;-84
2021/05/25 16:12:32;;;;;;;5.53;2.20;;;18.20;46.90;;;;;;4986103;28;20455;-87
2021/05/25 16:14:59;;;;;;;4.03;2.37;;;18.20;47.70;;;;;;4990815;28;20454;-85